Time;durP1;ratioP1;P1;durP2;ratioP2;P2;SDS_P1;SDS_P2;PMS_P1;PMS_P2;Temp;Humidity;BMP_temperature;BMP_pressure;BME280_temperature;BME280_humidity;BME280_pressure;Samples;Min_cycle;Max_cycle;Signal;HPM_P1;HPM_P2
2021/09/28 00:01:45;;;;;;;23.27;2.97;;;13.00;99.90;;;;;;5031397;28;20025;-79
2021/09/28 00:04:11;;;;;;;18.02;2.60;;;13.00;99.90;;;;;;5031383;28;20034;-79
2021/09/28 00:06:36;;;;;;;37.15;3.50;;;13.00;99.90;;;;;;5013799;28;20087;-79
2021/09/28 00:09:03;;;;;;;20.05;2.53;;;13.00;99.90;;;;;;5021425;28;20041;-80
2021/09/28 00:11:29;;;;;;;36.60;3.80;;;12.90;99.90;;;;;;4994905;28;20032;-79
2021/09/28 00:13:55;;;;;;;18.77;2.90;;;12.90;99.90;;;;;;5015326;28;20030;-80
2021/09/28 00:16:20;;;;;;;21.42;2.70;;;12.90;99.90;;;;;;5015702;28;20091;-80
2021/09/28 00:18:46;;;;;;;23.35;2.58;;;12.90;99.90;;;;;;5010640;28;20029;-80
2021/09/28 00:21:11;;;;;;;22.90;3.08;;;12.90;99.90;;;;;;5035306;28;20069;-79
2021/09/28 00:23:37;;;;;;;29.27;3.67;;;12.80;99.90;;;;;;5017592;28;20029;-79
2021/09/28 00:26:03;;;;;;;30.52;4.00;;;12.70;99.90;;;;;;5035246;28;20030;-80
2021/09/28 00:28:30;;;;;;;22.75;3.03;;;12.70;99.90;;;;;;5009637;28;20551;-79
2021/09/28 00:30:56;;;;;;;19.63;2.35;;;12.60;99.90;;;;;;5015347;28;20029;-79
2021/09/28 00:33:24;;;;;;;29.65;2.65;;;12.50;99.90;;;;;;4997717;28;20400;-79
2021/09/28 00:35:49;;;;;;;24.48;2.38;;;12.40;99.90;;;;;;4997497;28;20108;-80
2021/09/28 00:38:15;;;;;;;22.52;2.50;;;12.30;99.90;;;;;;5018114;28;20057;-79
2021/09/28 00:40:41;;;;;;;24.63;2.65;;;12.30;99.90;;;;;;5017212;28;20021;-79
2021/09/28 00:43:06;;;;;;;17.33;2.20;;;12.20;99.90;;;;;;5034808;28;20464;-79
2021/09/28 00:45:32;;;;;;;21.67;3.30;;;12.10;99.90;;;;;;5034711;28;20032;-79
2021/09/28 00:47:57;;;;;;;17.45;2.00;;;12.10;99.90;;;;;;5017041;28;20033;-80
2021/09/28 00:50:23;;;;;;;18.48;2.53;;;12.00;99.90;;;;;;5017037;28;20490;-79
2021/09/28 00:52:50;;;;;;;15.95;2.20;;;11.90;99.90;;;;;;4997246;28;20076;-79
2021/09/28 00:55:16;;;;;;;21.77;2.35;;;11.90;99.90;;;;;;4997156;28;20022;-79
2021/09/28 00:57:42;;;;;;;14.73;2.40;;;11.80;99.90;;;;;;4997112;28;20024;-79
2021/09/28 01:00:09;;;;;;;32.35;3.97;;;11.80;99.90;;;;;;5009514;28;20112;-79
2021/09/28 01:02:37;;;;;;;18.13;2.80;;;11.70;99.90;;;;;;5016814;28;20501;-79
2021/09/28 01:05:03;;;;;;;13.45;2.25;;;11.60;99.90;;;;;;5016692;28;20033;-79
2021/09/28 01:07:30;;;;;;;15.55;2.65;;;11.50;99.90;;;;;;5034514;28;20026;-79
2021/09/28 01:09:57;;;;;;;14.32;2.40;;;11.40;99.90;;;;;;5026034;28;20038;-80
2021/09/28 01:12:23;;;;;;;12.77;1.85;;;11.30;99.90;;;;;;5014064;28;20394;-79
2021/09/28 01:14:48;;;;;;;7.65;1.35;;;11.20;99.90;;;;;;4996716;28;20026;-79
2021/09/28 01:17:16;;;;;;;11.10;2.15;;;11.10;99.90;;;;;;5014484;28;20069;-79
2021/09/28 01:19:43;;;;;;;13.55;2.30;;;10.80;99.90;;;;;;4999832;28;20078;-79
2021/09/28 01:22:10;;;;;;;14.77;2.38;;;10.80;99.90;;;;;;5034141;28;20024;-79
2021/09/28 01:24:37;;;;;;;18.83;2.70;;;10.70;99.90;;;;;;5015432;28;20029;-79
2021/09/28 01:27:03;;;;;;;22.08;2.40;;;10.70;99.90;;;;;;5034072;28;20026;-79
2021/09/28 01:29:29;;;;;;;8.32;1.65;;;10.70;99.90;;;;;;5016294;28;20017;-79
2021/09/28 01:31:54;;;;;;;11.23;1.85;;;10.60;99.90;;;;;;5015092;28;20534;-79
2021/09/28 01:34:21;;;;;;;6.50;1.50;;;10.50;99.90;;;;;;4996334;28;20037;-79
2021/09/28 01:36:47;;;;;;;6.70;1.70;;;10.40;99.90;;;;;;5014130;28;20029;-79
2021/09/28 01:39:14;;;;;;;10.43;1.48;;;10.30;99.90;;;;;;5014141;28;20096;-79
2021/09/28 01:41:39;;;;;;;6.13;1.67;;;10.20;99.90;;;;;;5009551;28;20029;-79
2021/09/28 01:44:11;;;;;;;7.60;1.85;;;10.10;99.90;;;;;;5033564;28;20091;-79
2021/09/28 01:46:42;;;;;;;3.05;1.00;;;10.00;99.90;;;;;;5015951;28;20040;-79
2021/09/28 01:49:09;;;;;;;8.60;1.58;;;10.00;99.90;;;;;;5032036;28;20128;-79
2021/09/28 01:52:20;;;;;;;6.93;1.90;;;9.90;99.90;;;;;;5033568;28;20030;-79
2021/09/28 01:54:45;;;;;;;7.45;1.45;;;9.90;99.90;;;;;;5033335;28;20032;-79
2021/09/28 01:57:11;;;;;;;8.32;1.55;;;9.70;99.90;;;;;;5033565;28;20029;-79
2021/09/28 01:59:37;;;;;;;18.10;1.75;;;9.70;99.90;;;;;;5014840;28;20116;-79
2021/09/28 02:02:02;;;;;;;11.43;1.63;;;9.60;99.90;;;;;;5033436;28;20033;-79
2021/09/28 02:04:28;;;;;;;4.53;0.93;;;9.60;99.90;;;;;;5033139;28;20033;-79
2021/09/28 02:06:54;;;;;;;9.45;1.73;;;9.50;99.90;;;;;;5033259;28;20104;-79
2021/09/28 02:09:19;;;;;;;5.38;1.73;;;9.50;99.90;;;;;;5011310;28;20025;-79
2021/09/28 02:11:45;;;;;;;12.82;1.73;;;9.40;99.90;;;;;;5013322;28;20092;-79
2021/09/28 02:14:10;;;;;;;9.75;1.58;;;9.30;99.90;;;;;;5013411;28;20026;-79
2021/09/28 02:16:36;;;;;;;9.50;1.52;;;9.40;99.90;;;;;;4995915;28;20050;-79
2021/09/28 02:19:01;;;;;;;7.93;1.90;;;9.30;99.90;;;;;;4995765;28;20022;-79
2021/09/28 02:21:27;;;;;;;11.73;1.88;;;9.30;99.90;;;;;;4998944;28;20033;-79
2021/09/28 02:23:53;;;;;;;8.10;1.60;;;9.30;99.90;;;;;;5013300;28;20498;-79
2021/09/28 02:26:19;;;;;;;7.80;1.20;;;9.30;99.90;;;;;;4995704;28;20022;-79
2021/09/28 02:28:44;;;;;;;22.42;2.42;;;9.30;99.90;;;;;;5013165;28;20030;-79
2021/09/28 02:31:10;;;;;;;10.98;1.58;;;9.30;99.90;;;;;;5008515;28;20379;-79
2021/09/28 02:33:36;;;;;;;9.82;1.77;;;9.30;99.90;;;;;;5032749;28;20033;-79
2021/09/28 02:36:01;;;;;;;14.13;1.92;;;9.20;99.90;;;;;;5031428;28;20036;-78
2021/09/28 02:38:27;;;;;;;7.88;1.17;;;9.20;99.90;;;;;;5032779;28;20409;-79
2021/09/28 02:40:52;;;;;;;7.20;1.05;;;9.20;99.90;;;;;;5006564;28;20038;-79
2021/09/28 02:43:18;;;;;;;17.05;1.60;;;9.10;99.90;;;;;;5012916;28;20026;-79
2021/09/28 02:45:47;;;;;;;8.20;1.50;;;9.10;99.90;;;;;;4995077;28;20022;-79
2021/09/28 02:48:15;;;;;;;12.65;1.50;;;9.10;99.90;;;;;;5012733;28;20032;-79
2021/09/28 02:50:41;;;;;;;10.73;2.08;;;9.00;99.90;;;;;;5016172;28;20022;-79
2021/09/28 02:53:06;;;;;;;11.27;1.40;;;9.00;99.90;;;;;;5032333;28;20106;-79
2021/09/28 02:55:32;;;;;;;3.55;1.17;;;8.90;99.90;;;;;;5032231;28;20118;-79
2021/09/28 02:57:57;;;;;;;5.32;1.30;;;8.90;99.90;;;;;;5032406;28;20031;-79
2021/09/28 03:00:23;;;;;;;10.13;1.20;;;8.90;99.90;;;;;;5032389;28;20066;-79
2021/09/28 03:02:49;;;;;;;3.97;1.40;;;8.80;99.90;;;;;;5013658;28;20041;-79
2021/09/28 03:05:14;;;;;;;8.43;1.58;;;8.80;99.90;;;;;;4994698;28;20479;-79
2021/09/28 03:07:40;;;;;;;6.60;1.20;;;8.70;99.90;;;;;;5012558;28;20478;-79
2021/09/28 03:10:06;;;;;;;6.57;1.08;;;8.60;99.90;;;;;;5012247;28;20022;-79
2021/09/28 03:12:32;;;;;;;4.93;1.20;;;8.50;99.90;;;;;;4998459;28;20065;-79
2021/09/28 03:14:58;;;;;;;6.30;1.30;;;8.40;99.90;;;;;;5012139;28;20025;-79
2021/09/28 03:17:25;;;;;;;1.50;0.80;;;8.40;99.90;;;;;;5012370;28;20496;-79
2021/09/28 03:19:52;;;;;;;7.80;1.00;;;8.30;99.90;;;;;;5012372;28;20101;-79
2021/09/28 03:22:18;;;;;;;9.60;1.00;;;8.20;99.90;;;;;;5020139;28;20030;-79
2021/09/28 03:24:44;;;;;;;6.15;1.40;;;8.10;99.90;;;;;;5031823;28;20025;-79
2021/09/28 03:27:09;;;;;;;8.25;2.13;;;8.10;99.90;;;;;;5031979;28;20053;-79
2021/09/28 03:29:35;;;;;;;5.72;1.20;;;8.00;99.90;;;;;;5031907;28;20060;-79
2021/09/28 03:32:00;;;;;;;15.65;1.63;;;8.10;99.90;;;;;;5010732;28;20080;-79
2021/09/28 03:34:26;;;;;;;10.10;1.50;;;8.00;99.90;;;;;;4994339;28;20021;-79
2021/09/28 03:36:52;;;;;;;13.20;1.40;;;8.00;99.90;;;;;;5012101;28;20509;-79
2021/09/28 03:39:17;;;;;;;7.78;1.10;;;8.00;99.90;;;;;;5012139;28;20513;-79
2021/09/28 03:41:44;;;;;;;3.30;1.38;;;8.00;99.90;;;;;;5012184;28;20097;-79
2021/09/28 03:44:10;;;;;;;8.73;1.00;;;8.00;99.90;;;;;;5012767;28;20037;-79
2021/09/28 03:46:35;;;;;;;2.60;1.67;;;8.00;99.90;;;;;;5011681;28;20065;-79
2021/09/28 03:49:01;;;;;;;6.70;1.55;;;8.00;99.90;;;;;;4994366;28;20026;-79
2021/09/28 03:51:27;;;;;;;12.15;1.50;;;8.00;99.90;;;;;;5011839;28;20101;-79
2021/09/28 03:53:53;;;;;;;3.55;1.05;;;7.90;99.90;;;;;;4996412;28;20036;-79
2021/09/28 03:56:22;;;;;;;8.73;1.17;;;7.90;99.90;;;;;;4994399;28;20022;-79
2021/09/28 03:58:48;;;;;;;5.10;1.02;;;8.00;99.90;;;;;;5011894;28;20026;-79
2021/09/28 04:01:13;;;;;;;8.95;2.65;;;7.90;99.90;;;;;;4994108;28;20062;-79
2021/09/28 04:03:42;;;;;;;7.97;1.50;;;7.90;99.90;;;;;;5018940;28;20060;-79
2021/09/28 04:06:09;;;;;;;8.10;1.25;;;7.90;99.90;;;;;;5019864;28;20037;-79
2021/09/28 04:08:34;;;;;;;5.95;1.23;;;7.90;99.90;;;;;;5011999;28;20054;-79
2021/09/28 04:11:00;;;;;;;8.15;1.20;;;7.90;99.90;;;;;;5011749;28;20642;-79
2021/09/28 04:13:25;;;;;;;8.38;1.25;;;7.90;99.90;;;;;;5013858;28;20049;-80
2021/09/28 04:15:52;;;;;;;6.47;1.17;;;7.90;99.90;;;;;;5031303;28;20022;-79
2021/09/28 04:18:18;;;;;;;5.40;1.50;;;7.80;99.90;;;;;;5031451;28;20025;-79
2021/09/28 04:20:45;;;;;;;9.07;1.48;;;7.90;99.90;;;;;;5031408;28;20022;-79
2021/09/28 04:23:14;;;;;;;8.30;2.03;;;7.90;99.90;;;;;;5013681;28;20029;-79
2021/09/28 04:25:43;;;;;;;8.77;1.95;;;8.00;99.90;;;;;;5013084;28;20030;-79
2021/09/28 04:28:09;;;;;;;9.57;1.58;;;7.90;99.90;;;;;;5011761;28;20386;-79
2021/09/28 04:30:35;;;;;;;4.18;1.23;;;7.90;99.90;;;;;;4994074;28;20034;-79
2021/09/28 04:33:01;;;;;;;7.95;1.70;;;7.90;99.90;;;;;;4993832;28;20030;-79
2021/09/28 04:35:28;;;;;;;5.13;1.08;;;7.80;99.90;;;;;;5006930;28;20109;-79
2021/09/28 04:37:54;;;;;;;6.03;1.30;;;7.80;99.90;;;;;;5004854;28;20022;-79
2021/09/28 04:40:19;;;;;;;7.53;1.70;;;7.80;99.90;;;;;;4994025;28;20022;-79
2021/09/28 04:42:45;;;;;;;7.90;1.48;;;7.70;99.90;;;;;;5011410;28;20034;-79
2021/09/28 04:45:11;;;;;;;5.20;1.75;;;7.70;99.90;;;;;;5001633;28;20029;-79
2021/09/28 04:47:37;;;;;;;7.53;1.40;;;7.80;99.90;;;;;;5031231;28;20026;-79
2021/09/28 04:50:04;;;;;;;6.53;1.48;;;7.70;99.90;;;;;;5013447;28;20037;-79
2021/09/28 04:52:30;;;;;;;6.53;1.58;;;7.70;99.90;;;;;;5018625;28;20058;-79
2021/09/28 04:54:56;;;;;;;6.13;1.42;;;7.60;99.90;;;;;;5011197;28;20056;-78
2021/09/28 04:57:21;;;;;;;19.90;3.55;;;7.70;99.90;;;;;;4993951;28;20029;-78
2021/09/28 04:59:48;;;;;;;18.83;2.00;;;7.70;99.90;;;;;;4996370;28;20022;-79
2021/09/28 05:02:14;;;;;;;4.30;1.15;;;7.60;99.90;;;;;;5021312;28;20026;-79
2021/09/28 05:04:40;;;;;;;6.05;1.40;;;7.70;99.90;;;;;;5016665;28;20068;-79
2021/09/28 05:07:06;;;;;;;9.07;1.90;;;7.70;99.90;;;;;;5034483;28;20021;-79
2021/09/28 05:09:32;;;;;;;10.45;2.50;;;7.70;99.90;;;;;;5034469;28;20155;-79
2021/09/28 05:11:59;;;;;;;4.60;1.65;;;7.70;99.90;;;;;;5014285;28;20038;-78
2021/09/28 05:14:25;;;;;;;4.90;1.25;;;7.80;99.90;;;;;;5014393;28;20529;-79
2021/09/28 05:16:51;;;;;;;6.07;1.40;;;7.80;99.90;;;;;;4996822;28;20112;-79
2021/09/28 05:19:16;;;;;;;7.35;1.55;;;7.70;99.90;;;;;;5014516;28;20080;-79
2021/09/28 05:21:42;;;;;;;10.50;2.13;;;7.70;99.90;;;;;;4996857;28;20026;-79
2021/09/28 05:24:08;;;;;;;5.65;1.20;;;7.60;99.90;;;;;;4996790;28;20034;-79
2021/09/28 05:26:33;;;;;;;7.53;1.10;;;7.60;99.90;;;;;;4997725;28;20033;-79
2021/09/28 05:28:59;;;;;;;5.28;1.50;;;7.50;99.90;;;;;;4996713;28;20074;-79
2021/09/28 05:31:24;;;;;;;1.00;0.90;;;7.50;99.90;;;;;;4996584;28;20487;-79
2021/09/28 05:33:50;;;;;;;4.65;1.20;;;7.50;99.90;;;;;;5013957;28;20443;-79
2021/09/28 05:36:16;;;;;;;4.07;1.55;;;7.50;99.90;;;;;;4996628;28;20022;-78
2021/09/28 05:38:41;;;;;;;3.45;1.30;;;7.50;99.90;;;;;;5015659;28;20437;-79
2021/09/28 05:41:09;;;;;;;3.22;1.50;;;7.40;99.90;;;;;;5015984;28;20098;-79
2021/09/28 05:43:39;;;;;;;4.72;1.75;;;7.40;99.90;;;;;;5016081;28;20022;-79
2021/09/28 05:46:05;;;;;;;6.13;1.40;;;7.40;99.90;;;;;;5015901;28;20028;-79
2021/09/28 05:48:30;;;;;;;6.93;1.23;;;7.40;99.90;;;;;;5000640;28;20046;-79
2021/09/28 05:50:56;;;;;;;10.75;1.67;;;7.40;99.90;;;;;;4996312;28;20037;-79
2021/09/28 05:53:22;;;;;;;6.95;1.77;;;7.40;99.90;;;;;;5013792;28;20032;-79
2021/09/28 05:55:48;;;;;;;5.45;1.73;;;7.50;99.90;;;;;;4996025;28;20079;-79
2021/09/28 05:58:13;;;;;;;8.45;2.30;;;7.60;99.90;;;;;;5023425;28;20092;-79
2021/09/28 06:00:39;;;;;;;5.22;1.70;;;7.70;99.90;;;;;;5014307;28;20025;-79
2021/09/28 06:03:06;;;;;;;6.55;2.10;;;7.70;99.90;;;;;;5015207;28;20510;-79
2021/09/28 06:05:33;;;;;;;4.45;1.65;;;7.80;99.90;;;;;;5032989;28;20071;-79
2021/09/28 06:07:59;;;;;;;9.30;1.80;;;7.90;99.90;;;;;;5009663;28;20029;-79
2021/09/28 06:10:25;;;;;;;9.18;2.28;;;8.00;99.90;;;;;;5012962;28;20030;-79
2021/09/28 06:12:50;;;;;;;10.30;2.40;;;8.20;99.90;;;;;;5013236;28;20026;-79
2021/09/28 06:15:16;;;;;;;8.23;2.15;;;8.20;99.90;;;;;;5013007;28;20026;-79
2021/09/28 06:17:41;;;;;;;6.38;1.70;;;8.30;99.90;;;;;;4995670;28;20076;-79
2021/09/28 06:20:08;;;;;;;12.45;2.22;;;8.30;99.90;;;;;;5014967;28;20601;-79
2021/09/28 06:22:34;;;;;;;7.10;2.33;;;8.40;99.90;;;;;;5015172;28;20018;-79
2021/09/28 06:25:00;;;;;;;6.03;1.85;;;8.40;99.90;;;;;;5032675;28;20382;-79
2021/09/28 06:27:26;;;;;;;8.90;2.85;;;8.60;99.90;;;;;;5015115;28;20030;-79
2021/09/28 06:29:52;;;;;;;8.80;2.20;;;8.60;99.90;;;;;;4999974;28;20112;-79
2021/09/28 06:32:19;;;;;;;8.15;2.20;;;8.80;99.90;;;;;;5020097;28;20109;-79
2021/09/28 06:34:47;;;;;;;10.52;2.83;;;8.90;99.90;;;;;;5014722;28;20032;-79
2021/09/28 06:37:13;;;;;;;15.93;3.45;;;9.00;99.90;;;;;;5014994;28;20025;-79
2021/09/28 06:39:38;;;;;;;13.13;3.33;;;9.20;99.90;;;;;;5004652;28;20371;-79
2021/09/28 06:42:04;;;;;;;13.68;3.38;;;9.40;99.90;;;;;;5012865;28;20029;-79
2021/09/28 06:44:30;;;;;;;21.77;4.57;;;9.60;99.90;;;;;;5012450;28;20091;-79
2021/09/28 06:46:56;;;;;;;22.95;4.32;;;9.90;99.90;;;;;;4995305;28;20534;-79
2021/09/28 06:49:22;;;;;;;15.43;3.38;;;10.10;99.90;;;;;;4999740;28;20056;-79
2021/09/28 06:51:47;;;;;;;23.40;4.65;;;10.20;99.90;;;;;;5014669;28;20515;-79
2021/09/28 06:54:13;;;;;;;28.35;4.65;;;10.50;99.90;;;;;;5014351;28;20030;-79
2021/09/28 06:56:40;;;;;;;25.90;4.03;;;10.80;99.90;;;;;;5032335;28;20022;-80
2021/09/28 06:59:08;;;;;;;31.20;4.15;;;11.10;99.90;;;;;;5014246;28;20023;-80
2021/09/28 07:01:35;;;;;;;23.00;3.88;;;11.30;99.90;;;;;;4994708;28;20402;-79
2021/09/28 07:04:01;;;;;;;17.17;3.70;;;11.50;99.90;;;;;;4994697;28;20406;-80
2021/09/28 07:06:27;;;;;;;25.63;3.22;;;11.80;99.90;;;;;;5012381;28;20026;-79
2021/09/28 07:08:53;;;;;;;32.92;3.80;;;12.00;99.90;;;;;;4994728;28;20029;-80
2021/09/28 07:11:19;;;;;;;23.27;4.15;;;12.30;99.90;;;;;;5027094;28;20389;-80
2021/09/28 07:13:46;;;;;;;13.45;3.42;;;12.50;99.90;;;;;;5014054;28;20065;-79
2021/09/28 07:16:12;;;;;;;14.35;3.10;;;12.50;99.90;;;;;;5030372;28;20104;-79
2021/09/28 07:18:37;;;;;;;16.02;2.90;;;12.50;99.90;;;;;;5014339;28;20117;-80
2021/09/28 07:21:03;;;;;;;19.02;2.92;;;12.60;99.90;;;;;;5000850;28;20121;-80
2021/09/28 07:23:29;;;;;;;22.13;3.15;;;12.60;99.90;;;;;;5012234;28;20053;-79
2021/09/28 07:25:55;;;;;;;23.88;2.83;;;12.70;99.90;;;;;;5011879;28;20387;-80
2021/09/28 07:28:21;;;;;;;20.70;3.28;;;12.70;99.90;;;;;;5012152;28;20030;-79
2021/09/28 07:30:47;;;;;;;22.38;2.80;;;13.00;99.90;;;;;;5020769;28;20029;-80
2021/09/28 07:33:13;;;;;;;21.15;2.40;;;13.20;99.90;;;;;;5031778;28;20638;-80
2021/09/28 07:35:43;;;;;;;7.95;1.83;;;13.30;99.90;;;;;;5031562;28;20056;-80
2021/09/28 07:38:08;;;;;;;14.88;2.25;;;13.30;99.90;;;;;;5014062;28;20018;-80
2021/09/28 07:40:34;;;;;;;16.65;2.33;;;13.30;99.90;;;;;;5009877;28;20398;-80
2021/09/28 07:43:00;;;;;;;9.50;1.67;;;13.30;99.90;;;;;;5011999;28;20498;-80
2021/09/28 07:45:26;;;;;;;7.20;1.80;;;13.20;99.90;;;;;;5011810;28;20104;-80
2021/09/28 07:47:52;;;;;;;15.60;2.17;;;13.20;99.90;;;;;;4994298;28;20037;-80
2021/09/28 07:50:18;;;;;;;19.77;2.22;;;13.20;99.90;;;;;;5011993;28;20026;-80
2021/09/28 07:52:44;;;;;;;19.52;3.38;;;13.30;99.90;;;;;;5029921;28;20033;-80
2021/09/28 07:55:10;;;;;;;18.60;2.22;;;13.30;99.90;;;;;;5031321;28;20026;-79
2021/09/28 07:57:36;;;;;;;15.05;1.75;;;13.30;99.90;;;;;;5013916;28;20127;-80
2021/09/28 08:00:04;;;;;;;15.77;2.67;;;13.50;99.90;;;;;;5031526;28;20021;-79
2021/09/28 08:02:30;;;;;;;20.83;2.97;;;13.90;99.90;;;;;;4999904;28;20113;-80
2021/09/28 08:04:56;;;;;;;16.83;2.50;;;14.30;99.90;;;;;;4993941;28;20459;-81
2021/09/28 08:07:22;;;;;;;11.55;2.00;;;14.50;99.90;;;;;;4994172;28;20113;-80
2021/09/28 08:09:47;;;;;;;16.63;1.95;;;14.80;99.90;;;;;;4994182;28;20026;-80
2021/09/28 08:12:13;;;;;;;11.50;2.55;;;15.10;99.90;;;;;;5019202;28;20096;-80
2021/09/28 08:14:38;;;;;;;8.48;1.80;;;15.10;99.90;;;;;;5031227;28;20026;-79
2021/09/28 08:17:05;;;;;;;19.15;2.10;;;15.20;99.90;;;;;;5013826;28;20025;-80
2021/09/28 08:19:32;;;;;;;15.38;2.20;;;15.40;99.90;;;;;;5013576;28;20028;-80
2021/09/28 08:21:59;;;;;;;17.23;2.42;;;15.60;99.90;;;;;;5028067;28;20037;-80
2021/09/28 08:24:24;;;;;;;11.20;1.95;;;15.70;99.90;;;;;;4993695;28;20030;-81
2021/09/28 08:29:34;;;;;;;15.15;2.45;;;16.00;99.90;;;;;;5012677;28;20088;-80
2021/09/28 08:32:00;;;;;;;14.95;2.45;;;16.10;99.90;;;;;;4993878;28;20026;-81
2021/09/28 08:34:25;;;;;;;8.70;1.85;;;16.30;99.90;;;;;;5014653;28;20040;-80
2021/09/28 08:36:51;;;;;;;9.10;1.92;;;16.60;99.90;;;;;;5014984;28;20498;-80
2021/09/28 08:39:17;;;;;;;14.52;2.90;;;16.60;99.90;;;;;;5015110;28;20104;-80
2021/09/28 08:41:45;;;;;;;12.50;3.15;;;16.90;99.90;;;;;;4997296;28;20029;-80
2021/09/28 08:44:11;;;;;;;13.00;2.00;;;17.10;99.90;;;;;;5059027;23;20140;-86
2021/09/28 08:46:37;;;;;;;10.75;1.98;;;17.10;99.90;;;;;;5053020;28;20021;-87
2021/09/28 08:49:03;;;;;;;11.90;1.80;;;16.70;99.90;;;;;;5054389;28;20028;-86
2021/09/28 08:51:29;;;;;;;13.98;1.50;;;16.70;99.90;;;;;;5053306;28;20482;-85
2021/09/28 08:53:55;;;;;;;8.63;2.35;;;17.00;99.90;;;;;;5043878;28;20119;-84
2021/09/28 08:56:21;;;;;;;15.77;2.03;;;17.10;99.90;;;;;;5034522;28;20084;-86
2021/09/28 08:59:05;;;;;;;11.82;2.88;;;17.40;99.90;;;;;;5033341;28;20021;-83
2021/09/28 09:01:32;;;;;;;6.50;2.17;;;17.40;99.90;;;;;;5033195;28;20112;-85
2021/09/28 09:04:18;;;;;;;8.27;2.03;;;17.40;99.90;;;;;;5033883;28;20025;-84
2021/09/28 09:06:45;;;;;;;8.43;1.42;;;17.70;99.90;;;;;;5033161;28;20104;-86
2021/09/28 09:09:12;;;;;;;6.97;1.42;;;17.70;99.90;;;;;;5033186;28;20083;-83
2021/09/28 09:11:40;;;;;;;16.70;1.70;;;18.00;99.90;;;;;;5033195;28;20026;-87
2021/09/28 09:14:15;;;;;;;10.82;1.85;;;17.80;99.90;;;;;;5033548;28;20022;-85
2021/09/28 09:16:42;;;;;;;8.10;1.67;;;17.80;99.90;;;;;;5034220;28;20021;-86
2021/09/28 09:19:29;;;;;;;6.28;1.20;;;17.70;99.90;;;;;;5032973;28;20028;-86
2021/09/28 09:21:59;;;;;;;11.25;2.30;;;17.50;99.90;;;;;;5033592;28;20094;-88
2021/09/28 09:24:54;;;;;;;19.85;2.70;;;17.70;99.90;;;;;;5023583;28;20057;-90
2021/09/28 09:27:32;;;;;;;11.38;1.77;;;17.80;99.90;;;;;;5038991;28;20021;-88
2021/09/28 09:30:21;;;;;;;9.13;1.65;;;17.80;99.90;;;;;;5027647;28;20030;-87
2021/09/28 09:32:54;;;;;;;5.47;1.30;;;17.80;99.90;;;;;;5012307;28;20080;-86
2021/09/28 09:35:24;;;;;;;9.10;1.67;;;18.00;99.90;;;;;;5030496;28;20394;-84
2021/09/28 09:37:51;;;;;;;6.82;1.25;;;18.30;99.90;;;;;;5047426;28;20562;-84
2021/09/28 09:40:34;;;;;;;9.05;1.65;;;18.40;99.90;;;;;;5032299;28;20036;-84
2021/09/28 09:43:00;;;;;;;11.13;1.70;;;18.30;99.90;;;;;;5032118;28;20414;-85
2021/09/28 09:45:26;;;;;;;4.53;1.27;;;18.40;99.90;;;;;;5030898;28;20037;-84
2021/09/28 09:47:52;;;;;;;7.85;1.85;;;18.20;99.90;;;;;;5032377;28;20026;-84
2021/09/28 09:50:20;;;;;;;11.20;1.38;;;17.70;99.90;;;;;;5032386;28;20031;-85
2021/09/28 09:52:57;;;;;;;6.30;1.30;;;17.70;99.90;;;;;;5031508;28;20029;-86
2021/09/28 09:55:28;;;;;;;9.93;1.73;;;17.60;99.90;;;;;;5030862;28;20036;-82
2021/09/28 09:57:54;;;;;;;7.38;1.20;;;17.30;99.90;;;;;;5033230;28;20437;-86
2021/09/28 10:00:21;;;;;;;10.82;1.55;;;17.10;99.90;;;;;;5032247;28;20121;-86
2021/09/28 10:02:47;;;;;;;6.70;1.27;;;17.00;99.90;;;;;;5032961;28;20469;-87
2021/09/28 10:05:13;;;;;;;10.20;1.20;;;16.90;99.90;;;;;;5031720;28;20034;-85
2021/09/28 10:07:39;;;;;;;8.88;1.15;;;16.80;99.90;;;;;;5042195;28;20040;-84
2021/09/28 10:10:13;;;;;;;8.73;1.30;;;17.00;99.90;;;;;;5052049;28;20025;-89
2021/09/28 10:12:39;;;;;;;11.15;1.45;;;17.40;99.90;;;;;;5051702;28;20397;-85
2021/09/28 10:15:15;;;;;;;11.38;1.58;;;17.90;99.90;;;;;;5053001;28;20032;-86
2021/09/28 10:17:43;;;;;;;7.57;1.65;;;18.00;99.90;;;;;;5035276;28;20022;-88
2021/09/28 10:20:24;;;;;;;5.80;1.48;;;18.00;99.90;;;;;;5029779;28;20025;-84
2021/09/28 10:23:15;;;;;;;8.93;2.00;;;18.00;99.90;;;;;;5032777;28;20029;-82
2021/09/28 10:25:44;;;;;;;11.85;1.45;;;18.50;99.90;;;;;;5032737;28;20060;-84
2021/09/28 10:28:10;;;;;;;5.30;1.17;;;18.80;99.90;;;;;;5031720;28;20044;-82
2021/09/28 10:30:35;;;;;;;13.65;0.95;;;18.90;99.90;;;;;;5031638;28;20021;-81
2021/09/28 10:33:19;;;;;;;7.20;1.52;;;18.90;99.90;;;;;;5031383;28;20041;-83
2021/09/28 10:36:10;;;;;;;7.47;1.08;;;19.10;99.90;;;;;;5031307;28;20025;-82
2021/09/28 10:38:58;;;;;;;12.05;1.65;;;19.10;99.90;;;;;;5024251;28;20029;-86
2021/09/28 10:41:42;;;;;;;8.02;1.30;;;18.80;99.90;;;;;;5030824;28;20115;-87
2021/09/28 10:44:26;;;;;;;7.70;1.60;;;18.70;99.90;;;;;;5031729;28;20036;-85
2021/09/28 10:46:53;;;;;;;8.25;1.42;;;18.40;99.90;;;;;;5030986;28;20029;-85
2021/09/28 10:49:25;;;;;;;8.00;0.98;;;18.00;99.90;;;;;;5031163;28;20029;-87
2021/09/28 10:51:51;;;;;;;7.78;1.48;;;17.60;99.90;;;;;;5032336;28;20040;-85
2021/09/28 10:54:16;;;;;;;3.80;0.93;;;17.40;99.90;;;;;;5030297;28;20033;-85
2021/09/28 10:56:52;;;;;;;8.13;1.38;;;17.50;99.90;;;;;;5030180;28;20022;-84
2021/09/28 10:59:17;;;;;;;4.90;1.33;;;18.10;99.90;;;;;;5032112;28;20078;-85
2021/09/28 11:02:07;;;;;;;7.22;1.52;;;18.40;99.90;;;;;;5030977;28;20545;-83
2021/09/28 11:04:32;;;;;;;16.45;1.88;;;19.30;99.90;;;;;;5030272;28;20056;-85
2021/09/28 11:07:07;;;;;;;8.43;1.58;;;19.70;99.90;;;;;;5030844;28;20486;-86
2021/09/28 11:09:47;;;;;;;3.28;1.05;;;19.80;99.90;;;;;;5031361;28;20036;-85
2021/09/28 11:12:13;;;;;;;4.38;1.15;;;19.90;99.90;;;;;;5015686;28;20073;-84
2021/09/28 11:14:39;;;;;;;7.60;0.90;;;20.00;99.90;;;;;;5015128;28;20033;-83
2021/09/28 11:17:14;;;;;;;10.43;1.67;;;20.00;99.90;;;;;;5030578;28;20033;-83
2021/09/28 11:19:40;;;;;;;5.05;1.27;;;20.00;99.90;;;;;;5032118;28;20018;-82
2021/09/28 11:22:07;;;;;;;5.55;1.33;;;20.10;99.90;;;;;;5031942;28;20105;-85
2021/09/28 11:24:33;;;;;;;11.23;1.60;;;20.30;99.90;;;;;;5030517;28;20028;-83
2021/09/28 11:27:01;;;;;;;3.20;1.05;;;20.50;99.90;;;;;;5031713;28;20029;-82
2021/09/28 11:29:28;;;;;;;7.05;0.98;;;20.70;99.90;;;;;;5030501;28;20032;-83
2021/09/28 11:31:54;;;;;;;9.95;1.27;;;20.70;99.90;;;;;;5030633;28;20034;-83
2021/09/28 11:34:29;;;;;;;3.88;1.23;;;20.70;99.90;;;;;;5024692;28;20025;-85
2021/09/28 11:37:01;;;;;;;3.88;1.33;;;21.30;99.90;;;;;;5026538;28;20076;-85
2021/09/28 11:39:31;;;;;;;10.30;1.10;;;21.70;99.90;;;;;;5047115;28;20035;-86
2021/09/28 11:41:57;;;;;;;5.28;0.90;;;22.00;99.90;;;;;;5030554;28;20095;-85
2021/09/28 11:44:32;;;;;;;5.00;1.15;;;21.80;99.90;;;;;;5029823;28;20037;-84
2021/09/28 11:46:58;;;;;;;10.20;1.15;;;22.40;99.90;;;;;;5031317;28;20113;-85
2021/09/28 11:49:24;;;;;;;4.68;0.98;;;22.60;99.90;;;;;;5037067;28;20036;-84
2021/09/28 11:51:50;;;;;;;13.02;1.73;;;22.40;99.90;;;;;;5033203;28;20033;-82
2021/09/28 11:54:16;;;;;;;4.78;1.40;;;22.10;99.90;;;;;;5043655;28;20052;-86
2021/09/28 11:56:46;;;;;;;4.20;1.05;;;22.00;99.90;;;;;;5041084;28;20481;-84
2021/09/28 11:59:18;;;;;;;5.78;1.13;;;21.70;99.90;;;;;;5031554;28;20032;-85
2021/09/28 12:01:45;;;;;;;3.50;0.93;;;21.80;99.90;;;;;;5030023;28;20029;-84
2021/09/28 12:09:57;;;;;;;;;;;23.00;99.90;;;;;;4978310;28;20627;-87
2021/09/28 12:12:26;;;;;;;10.15;1.25;;;22.50;99.90;;;;;;5023253;28;20007;-86
2021/09/28 12:15:06;;;;;;;9.82;1.23;;;22.70;99.90;;;;;;5035027;28;20449;-84
2021/09/28 12:17:34;;;;;;;10.02;1.33;;;23.40;99.90;;;;;;5034755;28;20034;-84
2021/09/28 12:20:09;;;;;;;2.72;1.05;;;23.80;99.90;;;;;;5033958;28;20083;-87
2021/09/28 12:22:51;;;;;;;9.77;1.60;;;23.50;99.90;;;;;;5034066;28;20025;-85
2021/09/28 12:25:31;;;;;;;5.85;1.27;;;23.70;99.90;;;;;;5042084;28;20568;-86
2021/09/28 12:28:01;;;;;;;4.53;1.33;;;24.10;99.90;;;;;;5044359;28;20036;-86
2021/09/28 12:30:33;;;;;;;5.28;1.08;;;24.70;99.90;;;;;;5035110;28;20109;-86
2021/09/28 12:33:00;;;;;;;8.95;1.60;;;24.60;99.90;;;;;;5033693;28;20449;-84
2021/09/28 12:35:32;;;;;;;5.95;1.30;;;24.10;99.90;;;;;;5033418;28;20389;-83
2021/09/28 12:38:01;;;;;;;2.30;1.05;;;23.40;99.90;;;;;;5034715;28;20036;-88
2021/09/28 12:40:33;;;;;;;4.80;1.08;;;23.60;99.90;;;;;;5033479;28;20025;-86
2021/09/28 12:43:03;;;;;;;14.07;1.77;;;23.30;99.90;;;;;;5033500;28;20522;-86
2021/09/28 12:45:40;;;;;;;9.18;1.30;;;23.20;99.90;;;;;;5033288;28;20116;-88
2021/09/28 12:48:07;;;;;;;7.68;1.92;;;22.90;99.90;;;;;;5033155;28;20021;-85
2021/09/28 12:50:34;;;;;;;7.32;1.30;;;22.80;99.90;;;;;;5033323;28;20056;-86
2021/09/28 12:53:04;;;;;;;13.88;1.90;;;22.80;99.90;;;;;;5034390;28;20021;-86
2021/09/28 12:55:36;;;;;;;13.38;1.70;;;22.70;99.90;;;;;;5033310;28;20021;-86
2021/09/28 12:58:06;;;;;;;7.55;1.65;;;23.90;99.90;;;;;;5043457;28;20116;-87